Time;durP1;ratioP1;P1;durP2;ratioP2;P2;SDS_P1;SDS_P2;PMS_P1;PMS_P2;Temp;Humidity;BMP_temperature;BMP_pressure;BME280_temperature;BME280_humidity;BME280_pressure;Samples;Min_cycle;Max_cycle;Signal;HPM_P1;HPM_P2
2023/03/09 00:02:00;;;;;;;1.30;1.30;;;;;;;0.42;100.00;99011.88;5029100;28;20028;-65
2023/03/09 00:04:25;;;;;;;1.40;1.40;;;;;;;0.23;100.00;99008.13;5028647;28;20025;-65
2023/03/09 00:06:51;;;;;;;1.25;1.25;;;;;;;0.65;100.00;99012.22;5028004;28;20311;-61
2023/03/09 00:09:16;;;;;;;1.50;1.50;;;;;;;0.13;100.00;98999.63;5028367;28;20527;-64
2023/03/09 00:11:43;;;;;;;1.35;1.35;;;;;;;0.39;100.00;98978.00;5026518;28;20045;-65
2023/03/09 00:14:09;;;;;;;1.45;1.45;;;;;;;0.27;100.00;98998.59;5033331;28;20020;-64
2023/03/09 00:16:37;;;;;;;1.40;1.40;;;;;;;0.73;100.00;98997.66;5034782;28;20104;-60
2023/03/09 00:19:03;;;;;;;;;;;;;;;0.47;100.00;99006.66;5027650;28;20171;-64
2023/03/09 00:21:34;;;;;;;1.33;1.33;;;;;;;0.65;100.00;99001.41;5030447;28;20050;-64
2023/03/09 00:24:05;;;;;;;1.33;1.33;;;;;;;0.65;100.00;99001.41;5046930;28;20299;-65
2023/03/09 00:26:31;;;;;;;1.58;1.58;;;;;;;0.22;100.00;99020.81;5036695;28;20514;-64
2023/03/09 00:28:57;;;;;;;1.40;1.40;;;;;;;0.36;100.00;99013.53;5028359;28;20039;-65
2023/03/09 00:31:22;;;;;;;1.40;1.40;;;;;;;0.16;100.00;99018.13;5047046;28;20040;-64
2023/03/09 00:33:48;;;;;;;1.30;1.30;;;;;;;0.15;100.00;99029.94;5048312;28;20494;-65
2023/03/09 00:36:16;;;;;;;1.30;1.30;;;;;;;0.37;100.00;99034.09;5039987;28;20083;-63
2023/03/09 00:38:42;;;;;;;1.50;1.50;;;;;;;0.07;100.00;99040.97;5029634;28;20162;-64
2023/03/09 00:41:07;;;;;;;1.50;1.50;;;;;;;0.15;100.00;99052.38;5037288;28;20056;-59
2023/03/09 00:43:33;;;;;;;1.50;1.50;;;;;;;0.16;100.00;99053.22;5047534;28;20025;-61
2023/03/09 00:45:58;;;;;;;1.50;1.50;;;;;;;0.22;100.00;99044.28;5033787;28;20035;-65
2023/03/09 00:48:23;;;;;;;1.65;1.60;;;;;;;0.24;100.00;99047.59;5042844;28;20030;-64
2023/03/09 00:50:49;;;;;;;1.50;1.50;;;;;;;0.35;100.00;99052.34;5027831;28;20516;-63
2023/03/09 00:53:14;;;;;;;1.50;1.50;;;;;;;0.05;100.00;99061.91;5028600;28;20365;-60
2023/03/09 00:55:40;;;;;;;1.50;1.50;;;;;;;0.13;100.00;99059.84;5031206;28;20037;-64
2023/03/09 00:58:05;;;;;;;1.40;1.40;;;;;;;0.03;100.00;99062.13;5044549;28;20029;-64
2023/03/09 01:00:33;;;;;;;1.40;1.40;;;;;;;0.28;100.00;99069.59;5047125;28;20029;-64
2023/03/09 01:02:59;;;;;;;1.50;1.50;;;;;;;0.02;100.00;99067.72;5028527;28;20030;-60
2023/03/09 01:05:24;;;;;;;1.30;1.30;;;;;;;0.50;100.00;99076.44;5026948;28;20057;-64
2023/03/09 01:07:49;;;;;;;1.50;1.50;;;;;;;0.31;100.00;99086.25;5027481;28;20050;-64
2023/03/09 01:10:15;;;;;;;1.30;1.30;;;;;;;0.67;100.00;99088.50;5026690;28;20025;-61
2023/03/09 01:12:41;;;;;;;1.30;1.30;;;;;;;0.35;100.00;99097.44;5040866;28;20025;-65
2023/03/09 01:15:06;;;;;;;1.50;1.50;;;;;;;0.22;100.00;99096.41;5027276;28;20033;-64
2023/03/09 01:17:32;;;;;;;1.50;1.50;;;;;;;0.05;100.00;99108.66;5042174;28;20424;-63
2023/03/09 01:19:57;;;;;;;1.60;1.60;;;;;;;-0.01;100.00;99121.06;5045440;28;20036;-63
2023/03/09 01:22:22;;;;;;;1.40;1.40;;;;;;;0.36;100.00;99110.75;5032617;28;20051;-64
2023/03/09 01:24:47;;;;;;;1.50;1.50;;;;;;;0.35;100.00;99109.06;5027131;28;20566;-64
2023/03/09 01:27:13;;;;;;;1.40;1.40;;;;;;;0.45;100.00;99117.56;5035225;28;20455;-60
2023/03/09 01:29:38;;;;;;;1.40;1.40;;;;;;;0.42;100.00;99099.09;5046510;28;20033;-64
2023/03/09 01:32:04;;;;;;;1.60;1.60;;;;;;;0.12;100.00;99114.88;5041827;28;20076;-64
2023/03/09 01:34:29;;;;;;;1.60;1.60;;;;;;;0.29;100.00;99117.16;5027919;28;20036;-64
2023/03/09 01:36:54;;;;;;;1.50;1.50;;;;;;;0.16;100.00;99136.91;5037632;28;20040;-61
2023/03/09 01:39:20;;;;;;;1.50;1.50;;;;;;;0.08;100.00;99142.47;5047407;28;20093;-64
2023/03/09 01:41:45;;;;;;;1.60;1.60;;;;;;;0.15;100.00;99149.56;5044852;28;20076;-64
2023/03/09 01:44:12;;;;;;;1.52;1.52;;;;;;;0.06;100.00;99150.78;5047315;28;20139;-64
2023/03/09 01:46:52;;;;;;;1.60;1.60;;;;;;;0.09;100.00;99149.53;5043078;28;20021;-65
2023/03/09 01:49:43;;;;;;;1.50;1.50;;;;;;;0.22;100.00;99152.25;5046554;28;20100;-63
2023/03/09 01:52:32;;;;;;;1.55;1.55;;;;;;;0.15;100.00;99146.00;5036064;28;20036;-63
2023/03/09 01:55:05;;;;;;;1.60;1.50;;;;;;;0.49;100.00;99143.13;5026176;28;20072;-63
2023/03/09 01:57:36;;;;;;;1.50;1.50;;;;;;;0.21;100.00;99156.00;5028768;28;20048;-64
2023/03/09 02:00:08;;;;;;;1.60;1.60;;;;;;;0.09;100.00;99173.81;5046269;28;20068;-64
2023/03/09 02:02:37;;;;;;;1.80;1.70;;;;;;;0.06;100.00;99176.94;5046894;28;20021;-64
2023/03/09 02:05:08;;;;;;;1.60;1.60;;;;;;;0.17;100.00;99174.47;5041306;28;20029;-64
2023/03/09 02:07:36;;;;;;;1.60;1.60;;;;;;;0.21;100.00;99172.22;5025584;28;20030;-64
2023/03/09 02:10:09;;;;;;;1.60;1.60;;;;;;;0.09;100.00;99177.34;5026865;28;20353;-64
2023/03/09 02:12:35;;;;;;;1.90;1.80;;;;;;;0.13;100.00;99181.31;5023845;28;20036;-64
2023/03/09 02:15:03;;;;;;;1.58;1.58;;;;;;;0.13;100.00;99180.50;5025364;28;20025;-64
2023/03/09 02:17:29;;;;;;;1.75;1.70;;;;;;;0.12;100.00;99190.44;5025944;28;20041;-64
2023/03/09 02:20:06;;;;;;;1.63;1.63;;;;;;;0.11;100.00;99180.69;5026828;28;20029;-63
2023/03/09 02:22:35;;;;;;;1.80;1.70;;;;;;;0.27;100.00;99182.19;5025182;28;20419;-63
2023/03/09 02:25:13;;;;;;;1.70;1.60;;;;;;;0.41;100.00;99189.28;5039752;28;20379;-63
2023/03/09 02:27:39;;;;;;;1.85;1.75;;;;;;;0.38;100.00;99197.78;5026450;28;20061;-64
2023/03/09 02:30:07;;;;;;;1.63;1.60;;;;;;;0.16;100.00;99207.91;5026698;28;20103;-64
2023/03/09 02:32:32;;;;;;;1.90;1.80;;;;;;;0.10;100.00;99210.56;5037790;28;20384;-62
2023/03/09 02:34:58;;;;;;;1.80;1.70;;;;;;;0.10;100.00;99214.13;5027113;28;20087;-65
2023/03/09 02:37:35;;;;;;;1.80;1.70;;;;;;;0.11;100.00;99206.88;5025717;28;20417;-61
2023/03/09 02:40:10;;;;;;;1.70;1.70;;;;;;;0.19;100.00;99201.25;5028086;28;20044;-63
2023/03/09 02:42:37;;;;;;;1.90;1.80;;;;;;;0.20;100.00;99197.50;5029974;28;20435;-64
2023/03/09 02:45:04;;;;;;;1.70;1.70;;;;;;;0.28;100.00;99204.63;5033604;28;20496;-64
2023/03/09 02:47:29;;;;;;;1.70;1.70;;;;;;;0.18;100.00;99205.81;5039769;28;20480;-63
2023/03/09 02:49:55;;;;;;;1.80;1.70;;;;;;;0.09;100.00;99217.84;5028586;28;20036;-63
2023/03/09 02:52:20;;;;;;;1.80;1.70;;;;;;;0.13;100.00;99223.69;5035493;28;20056;-64
2023/03/09 02:54:45;;;;;;;1.90;1.80;;;;;;;0.10;100.00;99213.28;5044362;28;20644;-64
2023/03/09 02:57:11;;;;;;;1.95;1.85;;;;;;;0.11;100.00;99215.78;5034324;28;20068;-64
2023/03/09 02:59:37;;;;;;;1.90;1.80;;;;;;;0.14;100.00;99212.66;5049053;28;20025;-64
2023/03/09 03:02:02;;;;;;;1.98;1.88;;;;;;;0.11;100.00;99215.78;5048789;28;20021;-64
2023/03/09 03:04:27;;;;;;;1.90;1.80;;;;;;;0.23;100.00;99218.72;5050127;28;20071;-64
2023/03/09 03:06:53;;;;;;;1.95;1.85;;;;;;;0.21;100.00;99223.50;5042282;28;20075;-61
2023/03/09 03:09:18;;;;;;;1.90;1.80;;;;;;;0.10;100.00;99224.06;5030602;28;20372;-63
2023/03/09 03:11:43;;;;;;;1.90;1.80;;;;;;;0.22;100.00;99220.59;5028301;28;20048;-63
2023/03/09 03:14:08;;;;;;;1.80;1.70;;;;;;;0.25;100.00;99217.50;5034630;28;20476;-64
2023/03/09 03:16:34;;;;;;;1.90;1.80;;;;;;;0.17;100.00;99217.66;5045923;28;20467;-57
2023/03/09 03:18:59;;;;;;;1.80;1.70;;;;;;;0.50;100.00;99222.28;5042049;28;20026;-63
2023/03/09 03:21:25;;;;;;;1.90;1.80;;;;;;;0.22;100.00;99231.38;5029231;28;20021;-62
2023/03/09 03:23:50;;;;;;;2.10;2.00;;;;;;;0.25;100.00;99231.00;5026694;28;20092;-62
2023/03/09 03:26:16;;;;;;;2.05;1.95;;;;;;;0.23;100.00;99234.91;5017165;28;20035;-62
2023/03/09 03:28:41;;;;;;;2.10;2.00;;;;;;;0.32;100.00;99239.09;5049057;28;20074;-62
2023/03/09 03:31:07;;;;;;;2.10;2.00;;;;;;;0.38;100.00;99248.25;5050073;28;20064;-63
2023/03/09 03:33:32;;;;;;;2.20;2.10;;;;;;;0.15;100.00;99248.59;5048061;28;20065;-63
2023/03/09 03:35:58;;;;;;;2.20;2.10;;;;;;;0.13;100.00;99261.47;5030738;28;20046;-63
2023/03/09 03:38:23;;;;;;;2.10;2.00;;;;;;;0.07;100.00;99270.38;5038723;28;20048;-64
2023/03/09 03:40:48;;;;;;;2.10;2.00;;;;;;;0.07;100.00;99267.69;5049611;28;20029;-63
2023/03/09 03:43:14;;;;;;;2.00;1.90;;;;;;;0.30;100.00;99267.31;5048766;28;20025;-63
2023/03/09 03:45:39;;;;;;;2.00;1.90;;;;;;;0.34;100.00;99253.22;5033222;28;20033;-64
2023/03/09 03:48:05;;;;;;;2.10;2.00;;;;;;;0.25;100.00;99271.50;5028681;28;20037;-64
2023/03/09 03:50:30;;;;;;;2.03;1.92;;;;;;;0.18;100.00;99288.69;5031522;28;20025;-64
2023/03/09 03:52:56;;;;;;;2.10;2.00;;;;;;;0.29;100.00;99288.09;5031020;28;20084;-64
2023/03/09 03:55:21;;;;;;;2.25;2.15;;;;;;;0.12;100.00;99293.03;5036324;28;20468;-60
2023/03/09 03:57:47;;;;;;;2.30;2.20;;;;;;;0.20;100.00;99295.56;5047804;28;20025;-61
2023/03/09 04:00:12;;;;;;;2.25;2.15;;;;;;;0.12;100.00;99294.91;5048255;28;20388;-64
2023/03/09 04:02:38;;;;;;;2.25;2.15;;;;;;;0.18;100.00;99294.09;5048977;28;20119;-64
2023/03/09 04:05:04;;;;;;;2.22;2.13;;;;;;;0.11;100.00;99296.78;5037079;28;20397;-61
2023/03/09 04:07:30;;;;;;;2.35;2.20;;;;;;;0.21;100.00;99301.78;5027605;28;20042;-64
2023/03/09 04:09:55;;;;;;;2.30;2.20;;;;;;;0.10;100.00;99316.72;5028056;28;20029;-63
2023/03/09 04:12:20;;;;;;;2.20;2.10;;;;;;;0.09;100.00;99314.19;5038598;28;20710;-60
2023/03/09 04:14:46;;;;;;;1.90;1.80;;;;;;;0.39;100.00;99310.16;5047580;28;20024;-64
2023/03/09 04:17:11;;;;;;;2.20;2.10;;;;;;;0.22;100.00;99325.88;5047698;28;20119;-64
2023/03/09 04:19:36;;;;;;;2.45;2.25;;;;;;;0.15;100.00;99340.38;5047282;28;20400;-64
2023/03/09 04:22:03;;;;;;;2.40;2.30;;;;;;;0.16;100.00;99340.19;5034396;28;20025;-63
2023/03/09 04:24:28;;;;;;;2.35;2.25;;;;;;;0.35;100.00;99333.19;5043102;28;20033;-64
2023/03/09 04:26:53;;;;;;;2.40;2.30;;;;;;;0.42;100.00;99335.94;5046816;28;20055;-64
2023/03/09 04:29:19;;;;;;;2.47;2.38;;;;;;;0.53;100.00;99335.34;5049105;28;20052;-60
2023/03/09 04:31:44;;;;;;;2.40;2.30;;;;;;;0.34;100.00;99342.34;5037142;28;20033;-64
2023/03/09 04:34:12;;;;;;;2.30;2.20;;;;;;;0.47;100.00;99339.69;5028772;28;20091;-61
2023/03/09 04:36:38;;;;;;;2.50;2.40;;;;;;;0.46;100.00;99332.63;5032471;28;20202;-64
2023/03/09 04:39:04;;;;;;;2.40;2.30;;;;;;;0.43;100.00;99324.91;5028078;28;20067;-61
2023/03/09 04:41:30;;;;;;;2.40;2.30;;;;;;;0.28;100.00;99337.75;5026280;28;20052;-64
2023/03/09 04:43:56;;;;;;;1.85;1.75;;;;;;;0.54;100.00;99334.31;5046754;28;20025;-62
2023/03/09 04:46:21;;;;;;;2.10;2.00;;;;;;;0.64;100.00;99342.03;5046747;28;20569;-57
2023/03/09 04:48:46;;;;;;;2.20;2.10;;;;;;;0.54;100.00;99347.81;5047261;28;20021;-64
2023/03/09 04:51:12;;;;;;;2.40;2.30;;;;;;;0.40;100.00;99355.03;5031587;28;20065;-64
2023/03/09 04:53:37;;;;;;;2.38;2.28;;;;;;;0.27;100.00;99365.78;5025161;28;20360;-59
2023/03/09 04:56:02;;;;;;;2.30;2.20;;;;;;;0.57;100.00;99373.59;5046706;28;20033;-64
2023/03/09 04:58:27;;;;;;;2.45;2.35;;;;;;;0.19;100.00;99379.44;5037168;28;20487;-64
2023/03/09 05:00:53;;;;;;;2.50;2.40;;;;;;;0.16;100.00;99380.69;5036853;28;20036;-64
2023/03/09 05:03:18;;;;;;;2.30;2.20;;;;;;;0.51;100.00;99388.75;5047319;28;20112;-64
2023/03/09 05:05:43;;;;;;;2.40;2.30;;;;;;;0.41;100.00;99386.41;5037536;28;20028;-63
2023/03/09 05:08:08;;;;;;;2.63;2.53;;;;;;;0.28;100.00;99374.72;5029871;28;20115;-63
2023/03/09 05:10:34;;;;;;;2.10;2.00;;;;;;;0.56;100.00;99385.41;5025938;28;20033;-64
2023/03/09 05:12:59;;;;;;;2.58;2.47;;;;;;;0.29;100.00;99395.28;5026673;28;20029;-63
2023/03/09 05:15:24;;;;;;;2.40;2.30;;;;;;;0.38;100.00;99389.50;5028258;28;20112;-59
2023/03/09 05:17:50;;;;;;;2.45;2.35;;;;;;;0.38;100.00;99396.78;5027829;28;20368;-64
2023/03/09 05:20:16;;;;;;;1.90;1.80;;;;;;;0.47;100.00;99398.28;5032177;28;20021;-64
2023/03/09 05:22:42;;;;;;;2.50;2.40;;;;;;;0.24;100.00;99401.28;5026241;28;20041;-59
2023/03/09 05:25:07;;;;;;;2.40;2.30;;;;;;;0.38;100.00;99404.88;5026627;28;20095;-64
2023/03/09 05:27:33;;;;;;;2.38;2.28;;;;;;;0.25;100.00;99401.09;5027415;28;20435;-64
2023/03/09 05:29:58;;;;;;;2.60;2.40;;;;;;;0.58;100.00;99404.97;5027979;28;20111;-64
2023/03/09 05:32:23;;;;;;;2.30;2.20;;;;;;;0.61;100.00;99400.00;5031608;28;20075;-58
2023/03/09 05:34:49;;;;;;;2.40;2.30;;;;;;;0.57;100.00;99406.00;5035791;28;20032;-64
2023/03/09 05:37:14;;;;;;;2.30;2.20;;;;;;;0.45;100.00;99403.88;5031238;28;20046;-64
2023/03/09 05:39:40;;;;;;;2.50;2.40;;;;;;;0.25;100.00;99402.94;5035034;28;20077;-63
2023/03/09 05:42:05;;;;;;;2.50;2.40;;;;;;;0.25;100.00;99395.69;5027265;28;20029;-62
2023/03/09 05:44:31;;;;;;;2.70;2.50;;;;;;;0.11;100.00;99388.53;5027744;28;20036;-63
2023/03/09 05:46:57;;;;;;;2.50;2.40;;;;;;;0.31;100.00;99394.06;5023632;28;20025;-63
2023/03/09 05:49:23;;;;;;;2.08;1.98;;;;;;;0.36;100.00;99397.00;5043275;28;20036;-64
2023/03/09 05:51:48;;;;;;;2.40;2.30;;;;;;;0.11;100.00;99398.53;5030611;28;20022;-65
2023/03/09 05:54:14;;;;;;;2.80;2.63;;;;;;;0.07;100.00;99405.34;5027097;28;20072;-59
2023/03/09 05:56:39;;;;;;;2.50;2.40;;;;;;;0.32;100.00;99398.41;5035839;28;20029;-64
2023/03/09 05:59:04;;;;;;;2.47;2.38;;;;;;;0.13;100.00;99412.63;5047820;28;20029;-64
2023/03/09 06:01:30;;;;;;;2.42;2.33;;;;;;;0.18;100.00;99429.06;5029778;28;20032;-62
2023/03/09 06:03:56;;;;;;;2.33;2.22;;;;;;;0.19;100.00;99441.53;5025601;28;20034;-64
2023/03/09 06:06:22;;;;;;;2.50;2.40;;;;;;;0.13;100.00;99440.47;5033586;28;20025;-61
2023/03/09 06:08:47;;;;;;;2.55;2.45;;;;;;;0.13;100.00;99440.47;5047388;28;20063;-64
2023/03/09 06:11:13;;;;;;;2.35;2.25;;;;;;;0.28;100.00;99443.06;5027883;28;20021;-62
2023/03/09 06:13:39;;;;;;;2.20;2.10;;;;;;;0.49;100.00;99428.63;5007136;28;20508;-64
2023/03/09 06:16:05;;;;;;;2.38;2.28;;;;;;;0.25;100.00;99433.50;5011010;28;20030;-65
2023/03/09 06:18:31;;;;;;;2.35;2.25;;;;;;;0.22;100.00;99424.94;5010824;28;20026;-64
2023/03/09 06:21:02;;;;;;;2.40;2.30;;;;;;;0.27;100.00;99452.19;5011362;28;20045;-63
2023/03/09 06:23:28;;;;;;;2.35;2.25;;;;;;;0.24;100.00;99449.88;5010235;28;20022;-64
2023/03/09 06:25:53;;;;;;;2.55;2.45;;;;;;;0.29;100.00;99449.28;5010005;28;20116;-63
2023/03/09 06:28:19;;;;;;;2.30;2.20;;;;;;;0.39;100.00;99466.78;5011053;28;20153;-64
2023/03/09 06:30:44;;;;;;;2.30;2.20;;;;;;;0.56;100.00;99469.16;5010475;28;20030;-65
2023/03/09 06:33:09;;;;;;;2.50;2.40;;;;;;;0.40;100.00;99470.31;5010937;28;20041;-63
2023/03/09 06:35:35;;;;;;;2.40;2.30;;;;;;;0.39;100.00;99483.00;5010509;28;20026;-60
2023/03/09 06:38:01;;;;;;;2.40;2.30;;;;;;;0.37;100.00;99486.94;5009707;28;20439;-64
2023/03/09 06:40:27;;;;;;;2.40;2.30;;;;;;;0.38;100.00;99492.13;5010875;28;20018;-64
2023/03/09 06:42:53;;;;;;;2.50;2.40;;;;;;;0.45;100.00;99489.47;5009866;28;20033;-64
2023/03/09 06:45:20;;;;;;;2.47;2.38;;;;;;;0.53;100.00;99497.41;5010563;28;20030;-64
2023/03/09 06:47:45;;;;;;;2.60;2.50;;;;;;;0.42;100.00;99492.59;5010422;28;20026;-62
2023/03/09 06:50:11;;;;;;;2.10;2.00;;;;;;;0.72;100.00;99485.06;5010193;28;20052;-62
2023/03/09 06:52:36;;;;;;;2.30;2.20;;;;;;;0.55;100.00;99486.41;5022525;28;20030;-61
2023/03/09 06:55:01;;;;;;;2.10;2.00;;;;;;;0.65;100.00;99486.88;5029309;28;20088;-63
2023/03/09 06:57:27;;;;;;;2.40;2.30;;;;;;;0.48;100.00;99500.72;5029173;28;20030;-63
2023/03/09 06:59:52;;;;;;;2.42;2.33;;;;;;;0.47;100.00;99523.38;5030058;28;20361;-62
2023/03/09 07:02:17;;;;;;;2.40;2.30;;;;;;;0.48;100.00;99522.31;5029944;28;20069;-61
2023/03/09 07:04:42;;;;;;;2.33;2.22;;;;;;;0.53;100.00;99546.03;5029841;28;20541;-63
2023/03/09 07:07:08;;;;;;;2.33;2.22;;;;;;;0.54;100.00;99538.78;5029198;28;20083;-63
2023/03/09 07:09:34;;;;;;;2.50;2.40;;;;;;;0.55;100.00;99549.38;5029162;28;20040;-64
2023/03/09 07:11:59;;;;;;;2.30;2.20;;;;;;;0.57;100.00;99552.72;5027970;28;20067;-64
2023/03/09 07:14:26;;;;;;;2.40;2.30;;;;;;;0.63;100.00;99562.75;5026615;28;20034;-65
2023/03/09 07:16:56;;;;;;;2.35;2.25;;;;;;;0.63;100.00;99570.84;5025958;28;20033;-62
2023/03/09 07:19:22;;;;;;;2.20;2.10;;;;;;;0.60;100.00;99586.59;5029743;28;20036;-61
2023/03/09 07:21:48;;;;;;;2.30;2.20;;;;;;;0.63;100.00;99592.47;5028555;28;20025;-64
2023/03/09 07:24:13;;;;;;;2.50;2.40;;;;;;;0.65;100.00;99600.34;5029642;28;20030;-63
2023/03/09 07:26:38;;;;;;;2.42;2.33;;;;;;;0.70;100.00;99606.84;5027424;28;20029;-61
2023/03/09 07:29:04;;;;;;;2.22;2.13;;;;;;;0.71;100.00;99607.66;5029055;28;20057;-63
2023/03/09 07:31:29;;;;;;;2.20;2.10;;;;;;;0.81;100.00;99594.63;5029320;28;20423;-65
2023/03/09 07:33:59;;;;;;;2.10;2.00;;;;;;;0.94;100.00;99588.50;5028554;28;20075;-59
2023/03/09 07:36:24;;;;;;;2.03;1.92;;;;;;;0.99;100.00;99596.84;5026209;28;20041;-64
2023/03/09 07:38:50;;;;;;;2.30;2.20;;;;;;;0.79;100.00;99610.22;5029234;28;20041;-64
2023/03/09 07:41:16;;;;;;;2.30;2.20;;;;;;;0.83;100.00;99619.63;5029037;28;20025;-64
2023/03/09 07:43:43;;;;;;;2.25;2.15;;;;;;;0.76;100.00;99621.44;5025736;28;20507;-64
2023/03/09 07:46:11;;;;;;;2.20;2.10;;;;;;;0.78;100.00;99622.06;5028710;28;20083;-62
2023/03/09 07:48:39;;;;;;;2.30;2.20;;;;;;;0.82;100.00;99617.97;5028410;28;20329;-64
2023/03/09 07:51:06;;;;;;;2.30;2.20;;;;;;;0.88;100.00;99619.84;5028084;28;20075;-64
2023/03/09 07:53:33;;;;;;;2.20;2.10;;;;;;;0.89;100.00;99599.06;5042407;28;20032;-61
2023/03/09 07:56:03;;;;;;;2.20;2.10;;;;;;;0.97;100.00;99605.16;5028403;28;20037;-62
2023/03/09 07:58:30;;;;;;;2.20;2.10;;;;;;;0.92;100.00;99612.19;5027608;28;20037;-64
2023/03/09 08:00:56;;;;;;;2.35;2.25;;;;;;;0.97;100.00;99629.50;5028179;28;20037;-64
2023/03/09 08:03:21;;;;;;;2.20;2.10;;;;;;;1.15;100.00;99633.53;5027379;28;20074;-61
2023/03/09 08:05:47;;;;;;;2.20;2.10;;;;;;;1.25;100.00;99640.25;5026096;28;20037;-64
2023/03/09 08:08:12;;;;;;;2.30;2.20;;;;;;;1.11;100.00;99633.09;5027639;28;20099;-64
2023/03/09 08:10:39;;;;;;;2.20;2.10;;;;;;;1.16;100.00;99629.78;5027807;28;20029;-62
2023/03/09 08:13:05;;;;;;;2.17;2.08;;;;;;;1.44;100.00;99640.56;5026959;28;20079;-64
2023/03/09 08:15:30;;;;;;;1.83;1.73;;;;;;;1.45;100.00;99639.50;5028131;28;20017;-64
2023/03/09 08:17:55;;;;;;;1.90;1.80;;;;;;;1.58;100.00;99658.53;5027346;28;20380;-61
2023/03/09 08:20:21;;;;;;;2.30;2.20;;;;;;;1.16;100.00;99673.88;5026829;28;20026;-64
2023/03/09 08:22:46;;;;;;;2.40;2.30;;;;;;;1.12;100.00;99671.81;5026607;28;20025;-63
2023/03/09 08:25:11;;;;;;;2.30;2.20;;;;;;;1.36;100.00;99674.00;5025552;28;20387;-64
2023/03/09 08:27:41;;;;;;;2.50;2.40;;;;;;;1.26;100.00;99660.00;5027414;28;20407;-65
2023/03/09 08:30:08;;;;;;;2.20;2.10;;;;;;;1.52;100.00;99653.88;5027647;28;20092;-64
2023/03/09 08:32:34;;;;;;;2.20;2.10;;;;;;;1.62;100.00;99667.88;5027529;28;20042;-61
2023/03/09 08:34:59;;;;;;;2.30;2.20;;;;;;;1.45;100.00;99675.50;5026841;28;20036;-58
2023/03/09 08:37:24;;;;;;;2.30;2.20;;;;;;;1.56;100.00;99666.81;5026585;28;20072;-63
2023/03/09 08:39:51;;;;;;;2.40;2.30;;;;;;;1.71;100.00;99684.78;5026898;28;20030;-63
2023/03/09 08:42:17;;;;;;;2.40;2.30;;;;;;;1.58;100.00;99692.88;5027326;28;20038;-64
2023/03/09 08:44:42;;;;;;;2.30;2.20;;;;;;;1.52;100.00;99687.22;5025093;28;20040;-63
2023/03/09 08:47:07;;;;;;;2.40;2.30;;;;;;;1.52;100.00;99684.53;5027648;28;20037;-64
2023/03/09 08:49:33;;;;;;;2.42;2.33;;;;;;;1.64;100.00;99686.66;5027265;28;20026;-64
2023/03/09 08:51:58;;;;;;;2.40;2.30;;;;;;;1.78;100.00;99693.78;5026784;28;20029;-64
2023/03/09 08:54:23;;;;;;;2.38;2.28;;;;;;;1.91;100.00;99684.88;5026305;28;20809;-64
2023/03/09 08:56:48;;;;;;;2.42;2.33;;;;;;;1.99;100.00;99690.94;5026904;28;20592;-64
2023/03/09 08:59:14;;;;;;;2.30;2.20;;;;;;;2.07;100.00;99688.03;5027324;28;20080;-59
2023/03/09 09:01:39;;;;;;;2.40;2.30;;;;;;;2.21;100.00;99679.97;5026699;28;20031;-64
2023/03/09 09:04:04;;;;;;;2.30;2.20;;;;;;;2.27;100.00;99688.09;5025991;28;20057;-64
2023/03/09 09:06:31;;;;;;;2.38;2.28;;;;;;;2.21;100.00;99698.91;5026261;28;20047;-60
2023/03/09 09:08:56;;;;;;;2.25;2.15;;;;;;;2.17;100.00;99722.88;5026980;28;20108;-64
2023/03/09 09:11:22;;;;;;;2.03;1.92;;;;;;;2.11;100.00;99714.72;5026953;28;20021;-61
2023/03/09 09:13:47;;;;;;;2.35;2.25;;;;;;;2.10;100.00;99713.88;5026414;28;20028;-65
2023/03/09 09:16:15;;;;;;;2.17;2.08;;;;;;;2.09;100.00;99723.06;5026553;28;20120;-59
2023/03/09 09:18:41;;;;;;;2.10;2.00;;;;;;;2.19;100.00;99733.50;5026492;28;20030;-63
2023/03/09 09:21:08;;;;;;;2.10;2.00;;;;;;;2.19;100.00;99744.34;5025961;28;20032;-63
2023/03/09 09:23:38;;;;;;;2.03;1.92;;;;;;;2.20;100.00;99756.84;5026386;28;20032;-65
2023/03/09 09:26:05;;;;;;;2.13;2.03;;;;;;;2.16;100.00;99751.00;5026482;28;20377;-65
2023/03/09 09:28:30;;;;;;;2.10;2.00;;;;;;;2.17;100.00;99749.13;5026280;28;20095;-64
2023/03/09 09:30:58;;;;;;;2.10;2.00;;;;;;;2.21;100.00;99732.25;5026911;28;20468;-63
2023/03/09 09:33:24;;;;;;;2.10;2.00;;;;;;;2.29;100.00;99734.78;5026334;28;20049;-64
2023/03/09 09:36:22;;;;;;;1.95;1.85;;;;;;;2.38;100.00;99727.28;5025711;28;20033;-64
2023/03/09 09:38:47;;;;;;;2.10;2.00;;;;;;;2.53;100.00;99730.66;5023732;28;20045;-64
2023/03/09 09:41:50;;;;;;;3.33;3.13;;;;;;;2.77;100.00;99720.25;5025743;28;20025;-64
2023/03/09 09:44:20;;;;;;;1.90;1.80;;;;;;;2.80;100.00;99726.13;5026096;28;20067;-64
2023/03/09 09:46:47;;;;;;;1.90;1.80;;;;;;;2.71;100.00;99734.66;5025724;28;20022;-60
2023/03/09 09:49:19;;;;;;;2.00;1.90;;;;;;;2.74;100.00;99729.66;5026879;28;20041;-64
2023/03/09 09:52:00;;;;;;;2.10;2.00;;;;;;;2.74;100.00;99736.97;5023603;28;20052;-65
2023/03/09 09:54:30;;;;;;;1.98;1.88;;;;;;;2.68;100.00;99754.03;5030839;28;20030;-65
2023/03/09 09:56:59;;;;;;;2.03;1.92;;;;;;;2.62;100.00;99749.44;5029777;28;20030;-64
2023/03/09 09:59:32;;;;;;;1.90;1.80;;;;;;;2.58;100.00;99763.41;5038284;28;20036;-64
2023/03/09 10:02:10;;;;;;;1.95;1.85;;;;;;;2.58;100.00;99755.25;5034438;28;20036;-63
2023/03/09 10:04:46;;;;;;;2.10;2.00;;;;;;;2.53;100.00;99768.59;5030265;28;20030;-65
2023/03/09 10:07:15;;;;;;;1.92;1.83;;;;;;;2.51;100.00;99769.84;5027703;28;20033;-65
2023/03/09 10:09:44;;;;;;;2.25;2.15;;;;;;;2.50;100.00;99768.19;5028424;28;20056;-63
2023/03/09 10:12:14;;;;;;;1.83;1.73;;;;;;;2.49;100.00;99759.22;5028495;28;20041;-64
2023/03/09 10:14:50;;;;;;;2.00;1.90;;;;;;;2.50;100.00;99751.94;5029857;28;20032;-64
2023/03/09 10:17:24;;;;;;;2.20;2.10;;;;;;;2.60;100.00;99764.03;5030038;28;20025;-60
2023/03/09 10:19:51;;;;;;;2.00;1.90;;;;;;;2.71;100.00;99759.06;5030667;28;20079;-65
2023/03/09 10:22:24;;;;;;;2.42;2.33;;;;;;;2.78;100.00;99762.59;5026158;28;20103;-64
2023/03/09 10:24:52;;;;;;;2.10;2.00;;;;;;;2.81;100.00;99764.91;5029511;28;20436;-64
2023/03/09 10:27:30;;;;;;;2.22;2.13;;;;;;;2.91;100.00;99767.22;5030053;28;20029;-60
2023/03/09 10:30:05;;;;;;;2.10;2.00;;;;;;;2.88;100.00;99768.44;5028101;28;20037;-65
2023/03/09 10:32:39;;;;;;;2.10;2.00;;;;;;;2.83;100.00;99757.38;5027832;28;20029;-60
2023/03/09 10:35:28;;;;;;;1.95;1.85;;;;;;;2.90;100.00;99749.28;5029882;28;20033;-64
2023/03/09 10:37:53;;;;;;;2.13;2.03;;;;;;;2.83;100.00;99743.84;5031520;28;20078;-64
2023/03/09 10:40:41;;;;;;;1.90;1.80;;;;;;;2.89;100.00;99745.75;5029815;28;20052;-63
2023/03/09 10:43:14;;;;;;;2.10;2.00;;;;;;;2.93;100.00;99759.69;5009177;28;20472;-62
2023/03/09 10:45:40;;;;;;;2.10;2.00;;;;;;;3.09;100.00;99767.41;5010128;28;20068;-64
2023/03/09 10:48:06;;;;;;;2.10;2.00;;;;;;;3.20;100.00;99763.25;5011333;28;20029;-64
2023/03/09 10:50:33;;;;;;;2.05;1.95;;;;;;;3.17;100.00;99759.06;5029304;28;20236;-60
2023/03/09 10:53:21;;;;;;;2.17;2.08;;;;;;;3.19;100.00;99758.84;5028388;28;20509;-65
2023/03/09 10:55:46;;;;;;;;;;;;;;;3.37;100.00;99764.50;5028621;28;20033;-64
2023/03/09 10:58:18;;;;;;;2.10;2.00;;;;;;;3.51;100.00;99766.16;5028266;28;20364;-65
2023/03/09 11:00:54;;;;;;;2.00;1.90;;;;;;;3.47;100.00;99764.91;5028350;28;20056;-64
2023/03/09 11:03:22;;;;;;;1.95;1.80;;;;;;;3.39;100.00;99770.53;5029385;28;20029;-61
2023/03/09 11:05:47;;;;;;;1.90;1.80;;;;;;;3.31;100.00;99765.34;5028717;28;20026;-63
2023/03/09 11:08:23;;;;;;;2.03;1.92;;;;;;;3.29;100.00;99762.81;5045439;28;20033;-65
2023/03/09 11:11:00;;;;;;;2.00;1.90;;;;;;;3.34;100.00;99754.03;5046638;28;20032;-62
2023/03/09 11:13:25;;;;;;;1.88;1.77;;;;;;;3.39;100.00;99744.22;5048848;28;20029;-60
2023/03/09 11:16:17;;;;;;;2.00;1.90;;;;;;;3.51;100.00;99749.88;5047903;28;20364;-60
2023/03/09 11:18:43;;;;;;;1.88;1.77;;;;;;;3.52;100.00;99750.69;5036848;28;20073;-65
2023/03/09 11:21:08;;;;;;;1.95;1.85;;;;;;;3.51;100.00;99749.03;5027858;28;20021;-65
2023/03/09 11:23:44;;;;;;;1.88;1.77;;;;;;;3.52;100.00;99754.25;5028551;28;20585;-61
2023/03/09 11:26:12;;;;;;;2.00;1.90;;;;;;;3.61;100.00;99760.28;5029624;28;20067;-66
2023/03/09 11:28:55;;;;;;;1.90;1.80;;;;;;;3.76;100.00;99751.91;5028059;28;20033;-65
2023/03/09 11:31:25;;;;;;;2.10;2.00;;;;;;;3.89;100.00;99762.69;5028486;28;20064;-60
2023/03/09 11:33:54;;;;;;;1.85;1.75;;;;;;;3.90;100.00;99754.38;5028788;28;20427;-65
2023/03/09 11:36:25;;;;;;;1.83;1.73;;;;;;;3.88;100.00;99747.47;5028471;28;20072;-64